sensor_id;sensor_type;location;lat;lon;timestamp;pressure;altitude;pressure_sealevel;temperature;humidity
13209;BME280;6669;42.678;23.332;2023-02-13T00:00:56;96230.63;;;-1.07;100.00
13209;BME280;6669;42.678;23.332;2023-02-13T00:03:24;96235.72;;;-1.07;100.00
13209;BME280;6669;42.678;23.332;2023-02-13T00:05:52;96241.53;;;-1.04;100.00
13209;BME280;6669;42.678;23.332;2023-02-13T00:08:20;96244.22;;;-1.07;100.00
13209;BME280;6669;42.678;23.332;2023-02-13T00:10:48;96238.16;;;-1.04;100.00
13209;BME280;6669;42.678;23.332;2023-02-13T00:13:17;96232.94;;;-1.01;100.00
13209;BME280;6669;42.678;23.332;2023-02-13T00:15:54;96234.69;;;-1.03;100.00
13209;BME280;6669;42.678;23.332;2023-02-13T00:18:22;96234.34;;;-0.94;100.00
13209;BME280;6669;42.678;23.332;2023-02-13T00:20:58;96247.13;;;-0.94;100.00
13209;BME280;6669;42.678;23.332;2023-02-13T00:23:26;96250.97;;;-0.84;100.00
13209;BME280;6669;42.678;23.332;2023-02-13T00:25:54;96252.50;;;-0.79;100.00
13209;BME280;6669;42.678;23.332;2023-02-13T00:28:24;96242.09;;;-0.75;100.00
13209;BME280;6669;42.678;23.332;2023-02-13T00:30:52;96243.81;;;-0.75;100.00
13209;BME280;6669;42.678;23.332;2023-02-13T00:33:20;96253.97;;;-0.74;100.00
13209;BME280;6669;42.678;23.332;2023-02-13T00:35:48;96260.63;;;-0.70;100.00
13209;BME280;6669;42.678;23.332;2023-02-13T00:38:16;96253.97;;;-0.74;100.00
13209;BME280;6669;42.678;23.332;2023-02-13T00:40:44;96249.50;;;-0.69;100.00
13209;BME280;6669;42.678;23.332;2023-02-13T00:43:12;96247.72;;;-0.67;100.00
13209;BME280;6669;42.678;23.332;2023-02-13T00:45:41;96251.28;;;-0.71;100.00
13209;BME280;6669;42.678;23.332;2023-02-13T00:48:09;96261.50;;;-0.71;100.00
13209;BME280;6669;42.678;23.332;2023-02-13T00:50:37;96260.09;;;-0.78;100.00
13209;BME280;6669;42.678;23.332;2023-02-13T00:53:07;96260.78;;;-0.74;100.00
13209;BME280;6669;42.678;23.332;2023-02-13T00:55:35;96264.00;;;-0.69;100.00
13209;BME280;6669;42.678;23.332;2023-02-13T00:58:02;96262.94;;;-0.63;100.00
13209;BME280;6669;42.678;23.332;2023-02-13T01:00:30;96263.16;;;-0.70;100.00
13209;BME280;6669;42.678;23.332;2023-02-13T01:03:02;96268.03;;;-0.63;100.00
13209;BME280;6669;42.678;23.332;2023-02-13T01:05:30;96260.56;;;-0.68;100.00
13209;BME280;6669;42.678;23.332;2023-02-13T01:07:58;96265.50;;;-0.65;100.00
13209;BME280;6669;42.678;23.332;2023-02-13T01:10:26;96269.16;;;-0.71;100.00
13209;BME280;6669;42.678;23.332;2023-02-13T01:12:54;96263.81;;;-0.64;100.00
13209;BME280;6669;42.678;23.332;2023-02-13T01:15:23;96261.50;;;-0.71;100.00
13209;BME280;6669;42.678;23.332;2023-02-13T01:17:52;96256.56;;;-0.75;100.00
13209;BME280;6669;42.678;23.332;2023-02-13T01:20:24;96266.59;;;-0.71;100.00
13209;BME280;6669;42.678;23.332;2023-02-13T01:22:52;96265.84;;;-0.73;100.00
13209;BME280;6669;42.678;23.332;2023-02-13T01:25:20;96272.50;;;-0.69;100.00
13209;BME280;6669;42.678;23.332;2023-02-13T01:27:48;96276.81;;;-0.71;100.00
13209;BME280;6669;42.678;23.332;2023-02-13T01:30:18;96260.22;;;-0.81;100.00
13209;BME280;6669;42.678;23.332;2023-02-13T01:32:47;96270.91;;;-0.71;100.00
13209;BME280;6669;42.678;23.332;2023-02-13T01:35:15;96276.69;;;-0.68;100.00
13209;BME280;6669;42.678;23.332;2023-02-13T01:37:44;96271.47;;;-0.64;100.00
13209;BME280;6669;42.678;23.332;2023-02-13T01:40:13;96264.69;;;-0.66;100.00
13209;BME280;6669;42.678;23.332;2023-02-13T01:42:41;96278.88;;;-0.58;100.00
13209;BME280;6669;42.678;23.332;2023-02-13T01:45:22;96276.13;;;-0.54;100.00
13209;BME280;6669;42.678;23.332;2023-02-13T01:47:53;96276.09;;;-0.52;100.00
13209;BME280;6669;42.678;23.332;2023-02-13T01:50:24;96279.28;;;-0.47;100.00
13209;BME280;6669;42.678;23.332;2023-02-13T01:52:59;96280.81;;;-0.43;100.00
13209;BME280;6669;42.678;23.332;2023-02-13T01:55:29;96290.06;;;-0.40;100.00
13209;BME280;6669;42.678;23.332;2023-02-13T01:58:03;96285.66;;;-0.37;100.00
13209;BME280;6669;42.678;23.332;2023-02-13T02:00:32;96293.97;;;-0.31;100.00
13209;BME280;6669;42.678;23.332;2023-02-13T02:03:06;96294.22;;;-0.38;100.00
13209;BME280;6669;42.678;23.332;2023-02-13T02:05:37;96289.44;;;-0.45;100.00
13209;BME280;6669;42.678;23.332;2023-02-13T02:08:09;96290.69;;;-0.56;100.00
13209;BME280;6669;42.678;23.332;2023-02-13T02:10:39;96276.59;;;-0.64;100.00
13209;BME280;6669;42.678;23.332;2023-02-13T02:13:10;96269.56;;;-0.59;100.00
13209;BME280;6669;42.678;23.332;2023-02-13T02:15:41;96271.63;;;-0.47;100.00
13209;BME280;6669;42.678;23.332;2023-02-13T02:18:13;96284.19;;;-0.42;100.00
13209;BME280;6669;42.678;23.332;2023-02-13T02:21:00;96270.44;;;-0.60;100.00
13209;BME280;6669;42.678;23.332;2023-02-13T02:27:03;96282.34;;;-0.59;100.00
13209;BME280;6669;42.678;23.332;2023-02-13T02:30:25;96289.94;;;-0.58;100.00
13209;BME280;6669;42.678;23.332;2023-02-13T02:33:20;96262.47;;;-0.73;100.00
13209;BME280;6669;42.678;23.332;2023-02-13T02:35:59;96281.88;;;-0.69;100.00
13209;BME280;6669;42.678;23.332;2023-02-13T02:38:46;96285.56;;;-0.76;100.00
13209;BME280;6669;42.678;23.332;2023-02-13T02:41:26;96276.50;;;-0.84;100.00
13209;BME280;6669;42.678;23.332;2023-02-13T02:44:24;96296.91;;;-0.84;100.00
13209;BME280;6669;42.678;23.332;2023-02-13T02:47:08;96293.47;;;-0.83;100.00
13209;BME280;6669;42.678;23.332;2023-02-13T02:50:02;96294.28;;;-0.82;100.00
13209;BME280;6669;42.678;23.332;2023-02-13T02:52:44;96291.09;;;-0.87;100.00
13209;BME280;6669;42.678;23.332;2023-02-13T02:55:23;96301.94;;;-0.82;100.00
13209;BME280;6669;42.678;23.332;2023-02-13T02:58:00;96301.66;;;-0.74;100.00
13209;BME280;6669;42.678;23.332;2023-02-13T03:00:47;96308.41;;;-0.73;100.00
13209;BME280;6669;42.678;23.332;2023-02-13T03:03:35;96308.34;;;-0.72;100.00
13209;BME280;6669;42.678;23.332;2023-02-13T03:06:25;96307.22;;;-0.64;100.00
13209;BME280;6669;42.678;23.332;2023-02-13T03:08:58;96304.53;;;-0.61;100.00
13209;BME280;6669;42.678;23.332;2023-02-13T03:11:48;96304.28;;;-0.55;100.00
13209;BME280;6669;42.678;23.332;2023-02-13T03:14:35;96302.28;;;-0.47;100.00
13209;BME280;6669;42.678;23.332;2023-02-13T03:17:04;96301.09;;;-0.40;100.00
13209;BME280;6669;42.678;23.332;2023-02-13T03:19:57;96307.09;;;-0.41;100.00
13209;BME280;6669;42.678;23.332;2023-02-13T03:22:55;96302.78;;;-0.39;100.00
13209;BME280;6669;42.678;23.332;2023-02-13T03:25:28;96300.13;;;-0.36;100.00
13209;BME280;6669;42.678;23.332;2023-02-13T03:28:07;96311.97;;;-0.35;100.00
13209;BME280;6669;42.678;23.332;2023-02-13T03:31:01;96312.53;;;-0.48;100.00
13209;BME280;6669;42.678;23.332;2023-02-13T03:33:47;96311.78;;;-0.51;100.00
13209;BME280;6669;42.678;23.332;2023-02-13T03:36:30;96311.47;;;-0.43;100.00
13209;BME280;6669;42.678;23.332;2023-02-13T03:39:22;96314.91;;;-0.44;100.00
13209;BME280;6669;42.678;23.332;2023-02-13T03:41:54;96312.22;;;-0.41;100.00
13209;BME280;6669;42.678;23.332;2023-02-13T03:44:27;96306.94;;;-0.36;100.00
13209;BME280;6669;42.678;23.332;2023-02-13T03:47:00;96308.66;;;-0.37;100.00
13209;BME280;6669;42.678;23.332;2023-02-13T03:49:32;96318.72;;;-0.54;100.00
13209;BME280;6669;42.678;23.332;2023-02-13T03:52:23;96309.41;;;-0.55;100.00
13209;BME280;6669;42.678;23.332;2023-02-13T03:54:57;96314.75;;;-0.61;100.00
13209;BME280;6669;42.678;23.332;2023-02-13T03:57:45;96314.41;;;-0.52;100.00
13209;BME280;6669;42.678;23.332;2023-02-13T04:00:37;96303.09;;;-0.46;100.00
13209;BME280;6669;42.678;23.332;2023-02-13T04:03:11;96311.06;;;-0.54;100.00
13209;BME280;6669;42.678;23.332;2023-02-13T04:05:43;96305.97;;;-0.34;100.00
13209;BME280;6669;42.678;23.332;2023-02-13T04:08:13;96313.47;;;-0.29;100.00
13209;BME280;6669;42.678;23.332;2023-02-13T04:10:49;96307.63;;;-0.32;100.00
13209;BME280;6669;42.678;23.332;2023-02-13T04:13:21;96308.03;;;-0.42;100.00
13209;BME280;6669;42.678;23.332;2023-02-13T04:15:53;96315.38;;;-0.34;100.00
13209;BME280;6669;42.678;23.332;2023-02-13T04:18:25;96311.66;;;-0.27;100.00
13209;BME280;6669;42.678;23.332;2023-02-13T04:20:54;96312.28;;;-0.22;100.00
13209;BME280;6669;42.678;23.332;2023-02-13T04:23:22;96317.53;;;-0.25;100.00
13209;BME280;6669;42.678;23.332;2023-02-13T04:25:53;96320.63;;;-0.17;100.00
13209;BME280;6669;42.678;23.332;2023-02-13T04:28:22;96326.09;;;-0.05;100.00
13209;BME280;6669;42.678;23.332;2023-02-13T04:30:50;96321.03;;;-0.07;100.00
13209;BME280;6669;42.678;23.332;2023-02-13T04:33:18;96325.97;;;-0.02;100.00
13209;BME280;6669;42.678;23.332;2023-02-13T04:35:46;96330.44;;;-0.07;100.00
13209;BME280;6669;42.678;23.332;2023-02-13T04:38:14;96321.94;;;-0.08;100.00
13209;BME280;6669;42.678;23.332;2023-02-13T04:40:42;96326.38;;;-0.11;100.00
13209;BME280;6669;42.678;23.332;2023-02-13T04:43:11;96317.16;;;-0.15;100.00
13209;BME280;6669;42.678;23.332;2023-02-13T04:45:39;96318.06;;;-0.17;100.00
13209;BME280;6669;42.678;23.332;2023-02-13T04:48:07;96316.31;;;-0.16;100.00
13209;BME280;6669;42.678;23.332;2023-02-13T04:50:35;96320.66;;;-0.18;100.00
13209;BME280;6669;42.678;23.332;2023-02-13T04:53:03;96324.19;;;-0.21;100.00
13209;BME280;6669;42.678;23.332;2023-02-13T04:55:31;96330.44;;;-0.28;100.00
13209;BME280;6669;42.678;23.332;2023-02-13T04:57:59;96332.69;;;-0.20;100.00
13209;BME280;6669;42.678;23.332;2023-02-13T05:00:29;96342.13;;;-0.22;100.00
13209;BME280;6669;42.678;23.332;2023-02-13T05:02:59;96344.19;;;-0.30;100.00
13209;BME280;6669;42.678;23.332;2023-02-13T05:05:30;96342.69;;;-0.36;100.00
13209;BME280;6669;42.678;23.332;2023-02-13T05:07:58;96345.97;;;-0.32;100.00
13209;BME280;6669;42.678;23.332;2023-02-13T05:10:26;96349.63;;;-0.38;100.00
13209;BME280;6669;42.678;23.332;2023-02-13T05:12:54;96352.44;;;-0.46;100.00
13209;BME280;6669;42.678;23.332;2023-02-13T05:15:22;96348.91;;;-0.42;100.00
13209;BME280;6669;42.678;23.332;2023-02-13T05:17:52;96356.50;;;-0.62;100.00
13209;BME280;6669;42.678;23.332;2023-02-13T05:20:20;96354.31;;;-0.50;100.00
13209;BME280;6669;42.678;23.332;2023-02-13T05:22:50;96361.28;;;-0.53;100.00
13209;BME280;6669;42.678;23.332;2023-02-13T05:25:38;96361.06;;;-0.48;100.00
13209;BME280;6669;42.678;23.332;2023-02-13T05:28:06;96356.91;;;-0.51;100.00
13209;BME280;6669;42.678;23.332;2023-02-13T05:30:55;96351.06;;;-0.53;100.00
13209;BME280;6669;42.678;23.332;2023-02-13T05:33:24;96349.63;;;-0.60;100.00
13209;BME280;6669;42.678;23.332;2023-02-13T05:35:52;96357.22;;;-0.59;100.00
13209;BME280;6669;42.678;23.332;2023-02-13T05:38:20;96359.38;;;-0.48;100.00
13209;BME280;6669;42.678;23.332;2023-02-13T05:40:47;96358.47;;;-0.47;100.00
13209;BME280;6669;42.678;23.332;2023-02-13T05:43:15;96370.41;;;-0.47;100.00
13209;BME280;6669;42.678;23.332;2023-02-13T05:45:43;96362.66;;;-0.46;100.00
13209;BME280;6669;42.678;23.332;2023-02-13T05:48:11;96365.75;;;-0.38;100.00
13209;BME280;6669;42.678;23.332;2023-02-13T05:50:40;96373.50;;;-0.39;100.00
13209;BME280;6669;42.678;23.332;2023-02-13T05:53:08;96371.81;;;-0.40;100.00
13209;BME280;6669;42.678;23.332;2023-02-13T05:55:37;96375.91;;;-0.36;100.00
13209;BME280;6669;42.678;23.332;2023-02-13T05:58:05;96374.13;;;-0.34;100.00
13209;BME280;6669;42.678;23.332;2023-02-13T06:00:35;96373.50;;;-0.39;100.00
13209;BME280;6669;42.678;23.332;2023-02-13T06:03:03;96374.72;;;-0.27;100.00
13209;BME280;6669;42.678;23.332;2023-02-13T06:05:31;96370.50;;;-0.28;100.00
13209;BME280;6669;42.678;23.332;2023-02-13T06:08:00;96380.28;;;-0.38;100.00
13209;BME280;6669;42.678;23.332;2023-02-13T06:10:28;96391.81;;;-0.29;100.00
13209;BME280;6669;42.678;23.332;2023-02-13T06:12:56;96382.53;;;-0.30;100.00
13209;BME280;6669;42.678;23.332;2023-02-13T06:15:24;96383.75;;;-0.41;100.00
13209;BME280;6669;42.678;23.332;2023-02-13T06:17:52;96389.97;;;-0.26;100.00
13209;BME280;6669;42.678;23.332;2023-02-13T06:20:19;96388.28;;;-0.25;100.00
13209;BME280;6669;42.678;23.332;2023-02-13T06:22:48;96394.38;;;-0.29;100.00
13209;BME280;6669;42.678;23.332;2023-02-13T06:25:18;96400.66;;;-0.16;100.00
13209;BME280;6669;42.678;23.332;2023-02-13T06:27:46;96392.03;;;-0.13;100.00
13209;BME280;6669;42.678;23.332;2023-02-13T06:30:15;96398.63;;;-0.08;100.00
13209;BME280;6669;42.678;23.332;2023-02-13T06:32:45;96401.06;;;-0.05;100.00
13209;BME280;6669;42.678;23.332;2023-02-13T06:35:13;96408.66;;;-0.03;100.00
13209;BME280;6669;42.678;23.332;2023-02-13T06:37:41;96399.66;;;0.09;100.00
13209;BME280;6669;42.678;23.332;2023-02-13T06:40:11;96405.09;;;0.01;100.00
13209;BME280;6669;42.678;23.332;2023-02-13T06:42:42;96407.97;;;0.14;100.00
13209;BME280;6669;42.678;23.332;2023-02-13T06:45:10;96408.25;;;0.08;100.00
13209;BME280;6669;42.678;23.332;2023-02-13T06:47:40;96415.69;;;0.12;100.00
13209;BME280;6669;42.678;23.332;2023-02-13T06:50:10;96413.69;;;0.21;100.00
13209;BME280;6669;42.678;23.332;2023-02-13T06:52:39;96407.16;;;0.13;100.00
13209;BME280;6669;42.678;23.332;2023-02-13T06:55:12;96405.78;;;0.25;100.00
13209;BME280;6669;42.678;23.332;2023-02-13T06:57:42;96405.16;;;0.41;100.00
13209;BME280;6669;42.678;23.332;2023-02-13T07:00:11;96401.84;;;0.39;100.00
13209;BME280;6669;42.678;23.332;2023-02-13T07:02:41;96405.72;;;0.47;100.00
13209;BME280;6669;42.678;23.332;2023-02-13T07:05:10;96411.53;;;0.51;100.00
13209;BME280;6669;42.678;23.332;2023-02-13T07:07:39;96411.22;;;0.59;100.00
13209;BME280;6669;42.678;23.332;2023-02-13T07:10:09;96394.13;;;0.59;100.00
13209;BME280;6669;42.678;23.332;2023-02-13T07:12:37;96393.72;;;0.69;100.00
13209;BME280;6669;42.678;23.332;2023-02-13T07:15:08;96387.66;;;0.51;100.00
13209;BME280;6669;42.678;23.332;2023-02-13T07:17:35;96400.75;;;0.63;100.00
13209;BME280;6669;42.678;23.332;2023-02-13T07:20:04;96402.00;;;0.74;100.00
13209;BME280;6669;42.678;23.332;2023-02-13T07:22:33;96414.97;;;0.90;100.00
13209;BME280;6669;42.678;23.332;2023-02-13T07:25:01;96414.91;;;0.91;100.00
13209;BME280;6669;42.678;23.332;2023-02-13T07:27:29;96411.09;;;1.00;100.00
13209;BME280;6669;42.678;23.332;2023-02-13T07:29:57;96400.16;;;0.96;100.00
13209;BME280;6669;42.678;23.332;2023-02-13T07:32:26;96416.66;;;1.10;100.00
13209;BME280;6669;42.678;23.332;2023-02-13T07:34:54;96408.75;;;1.14;100.00
13209;BME280;6669;42.678;23.332;2023-02-13T07:37:28;96414.78;;;1.13;100.00
13209;BME280;6669;42.678;23.332;2023-02-13T07:39:57;96417.47;;;1.10;100.00
13209;BME280;6669;42.678;23.332;2023-02-13T07:42:25;96413.25;;;0.90;100.00
13209;BME280;6669;42.678;23.332;2023-02-13T07:44:53;96417.19;;;0.97;100.00
13209;BME280;6669;42.678;23.332;2023-02-13T07:47:21;96413.94;;;1.13;100.00
13209;BME280;6669;42.678;23.332;2023-02-13T07:49:50;96417.97;;;1.19;100.00
13209;BME280;6669;42.678;23.332;2023-02-13T07:52:20;96416.84;;;1.24;100.00
13209;BME280;6669;42.678;23.332;2023-02-13T07:54:48;96414.09;;;1.29;100.00
13209;BME280;6669;42.678;23.332;2023-02-13T07:57:16;96406.41;;;1.10;100.00
13209;BME280;6669;42.678;23.332;2023-02-13T07:59:44;96412.63;;;1.23;100.00
13209;BME280;6669;42.678;23.332;2023-02-13T08:02:13;96417.34;;;1.33;100.00
13209;BME280;6669;42.678;23.332;2023-02-13T08:04:42;96415.44;;;1.36;100.00
13209;BME280;6669;42.678;23.332;2023-02-13T08:07:14;96412.06;;;1.36;100.00
13209;BME280;6669;42.678;23.332;2023-02-13T08:09:43;96418.50;;;1.44;100.00
13209;BME280;6669;42.678;23.332;2023-02-13T08:12:29;96394.06;;;1.18;100.00
13209;BME280;6669;42.678;23.332;2023-02-13T08:14:58;96402.47;;;1.03;100.00
13209;BME280;6669;42.678;23.332;2023-02-13T08:17:26;96410.22;;;1.20;100.00
13209;BME280;6669;42.678;23.332;2023-02-13T08:19:53;96408.97;;;1.29;100.00
13209;BME280;6669;42.678;23.332;2023-02-13T08:22:23;96407.91;;;0.95;100.00
13209;BME280;6669;42.678;23.332;2023-02-13T08:24:51;96413.47;;;1.05;100.00
13209;BME280;6669;42.678;23.332;2023-02-13T08:27:19;96418.78;;;1.00;100.00
13209;BME280;6669;42.678;23.332;2023-02-13T08:29:48;96417.19;;;0.78;100.00
13209;BME280;6669;42.678;23.332;2023-02-13T08:32:16;96412.31;;;0.72;100.00
13209;BME280;6669;42.678;23.332;2023-02-13T08:34:44;96413.38;;;0.87;100.00
13209;BME280;6669;42.678;23.332;2023-02-13T08:37:12;96408.63;;;0.98;100.00
13209;BME280;6669;42.678;23.332;2023-02-13T08:39:42;96408.81;;;1.13;100.00
13209;BME280;6669;42.678;23.332;2023-02-13T08:42:10;96409.44;;;1.18;100.00
13209;BME280;6669;42.678;23.332;2023-02-13T08:44:42;96400.25;;;1.14;100.00
13209;BME280;6669;42.678;23.332;2023-02-13T08:47:10;96413.81;;;1.16;100.00
13209;BME280;6669;42.678;23.332;2023-02-13T08:49:38;96418.09;;;0.96;100.00
13209;BME280;6669;42.678;23.332;2023-02-13T08:52:06;96390.34;;;0.87;100.00
13209;BME280;6669;42.678;23.332;2023-02-13T08:54:34;96403.84;;;0.91;100.00
13209;BME280;6669;42.678;23.332;2023-02-13T08:57:04;96397.47;;;1.00;100.00
13209;BME280;6669;42.678;23.332;2023-02-13T08:59:32;96417.69;;;1.25;100.00
13209;BME280;6669;42.678;23.332;2023-02-13T09:02:00;96414.09;;;1.29;100.00
13209;BME280;6669;42.678;23.332;2023-02-13T09:04:27;96413.28;;;1.46;100.00
13209;BME280;6669;42.678;23.332;2023-02-13T09:06:55;96417.53;;;1.47;100.00
13209;BME280;6669;42.678;23.332;2023-02-13T09:09:23;96414.13;;;1.46;100.00
13209;BME280;6669;42.678;23.332;2023-02-13T09:11:51;96411.22;;;1.54;100.00
13209;BME280;6669;42.678;23.332;2023-02-13T09:14:23;96417.16;;;1.55;100.00
13209;BME280;6669;42.678;23.332;2023-02-13T09:16:51;96408.53;;;1.19;100.00
13209;BME280;6669;42.678;23.332;2023-02-13T09:19:19;96420.47;;;1.20;100.00
13209;BME280;6669;42.678;23.332;2023-02-13T09:21:46;96403.00;;;1.28;100.00
13209;BME280;6669;42.678;23.332;2023-02-13T09:24:14;96412.84;;;1.38;100.00
13209;BME280;6669;42.678;23.332;2023-02-13T09:26:42;96400.94;;;0.98;100.00
13209;BME280;6669;42.678;23.332;2023-02-13T09:29:10;96401.34;;;1.27;100.00
13209;BME280;6669;42.678;23.332;2023-02-13T09:31:40;96400.13;;;1.54;100.00
13209;BME280;6669;42.678;23.332;2023-02-13T09:34:08;96390.47;;;1.59;100.00
13209;BME280;6669;42.678;23.332;2023-02-13T09:36:36;96403.91;;;1.64;100.00
13209;BME280;6669;42.678;23.332;2023-02-13T09:39:04;96401.69;;;1.56;100.00
13209;BME280;6669;42.678;23.332;2023-02-13T09:41:35;96395.22;;;1.49;100.00
13209;BME280;6669;42.678;23.332;2023-02-13T09:44:06;96385.31;;;1.60;100.00
13209;BME280;6669;42.678;23.332;2023-02-13T09:47:03;96386.66;;;1.85;100.00
13209;BME280;6669;42.678;23.332;2023-02-13T09:49:35;96390.22;;;1.83;100.00
13209;BME280;6669;42.678;23.332;2023-02-13T09:52:04;96382.81;;;1.76;100.00
13209;BME280;6669;42.678;23.332;2023-02-13T09:54:31;96383.94;;;1.71;100.00
13209;BME280;6669;42.678;23.332;2023-02-13T09:57:01;96378.97;;;1.68;100.00
13209;BME280;6669;42.678;23.332;2023-02-13T09:59:38;96376.25;;;1.71;100.00
13209;BME280;6669;42.678;23.332;2023-02-13T10:02:22;96369.63;;;1.84;100.00
13209;BME280;6669;42.678;23.332;2023-02-13T10:05:02;96361.75;;;2.22;100.00
13209;BME280;6669;42.678;23.332;2023-02-13T10:07:39;96349.13;;;2.69;100.00
13209;BME280;6669;42.678;23.332;2023-02-13T10:10:18;96358.69;;;2.99;100.00
13209;BME280;6669;42.678;23.332;2023-02-13T10:12:57;96347.56;;;3.30;100.00
13209;BME280;6669;42.678;23.332;2023-02-13T10:15:39;96352.19;;;3.55;100.00
13209;BME280;6669;42.678;23.332;2023-02-13T10:18:13;96354.47;;;3.60;100.00
13209;BME280;6669;42.678;23.332;2023-02-13T10:20:45;96346.97;;;3.41;100.00
13209;BME280;6669;42.678;23.332;2023-02-13T10:23:19;96340.56;;;3.64;100.00
13209;BME280;6669;42.678;23.332;2023-02-13T10:25:53;96346.94;;;4.32;100.00
13209;BME280;6669;42.678;23.332;2023-02-13T10:28:31;96342.63;;;4.62;100.00
13209;BME280;6669;42.678;23.332;2023-02-13T10:31:04;96333.88;;;4.79;100.00
13209;BME280;6669;42.678;23.332;2023-02-13T10:33:39;96326.09;;;5.07;100.00
13209;BME280;6669;42.678;23.332;2023-02-13T10:36:15;96314.72;;;5.24;100.00
13209;BME280;6669;42.678;23.332;2023-02-13T10:38:54;96324.03;;;5.67;100.00
13209;BME280;6669;42.678;23.332;2023-02-13T10:41:24;96314.53;;;6.21;100.00
13209;BME280;6669;42.678;23.332;2023-02-13T10:44:07;96305.16;;;6.83;100.00
13209;BME280;6669;42.678;23.332;2023-02-13T10:46:47;96306.97;;;7.07;100.00
13209;BME280;6669;42.678;23.332;2023-02-13T10:49:35;96312.38;;;6.91;100.00
13209;BME280;6669;42.678;23.332;2023-02-13T10:52:14;96302.78;;;6.93;100.00
13209;BME280;6669;42.678;23.332;2023-02-13T10:58:03;96300.66;;;7.35;100.00
13209;BME280;6669;42.678;23.332;2023-02-13T11:00:37;96292.25;;;6.83;100.00
13209;BME280;6669;42.678;23.332;2023-02-13T11:03:16;96288.22;;;7.16;100.00
13209;BME280;6669;42.678;23.332;2023-02-13T11:05:47;96263.56;;;6.99;100.00
13209;BME280;6669;42.678;23.332;2023-02-13T11:08:19;96266.59;;;7.17;100.00
13209;BME280;6669;42.678;23.332;2023-02-13T11:10:48;96273.47;;;7.29;100.00
13209;BME280;6669;42.678;23.332;2023-02-13T11:13:19;96266.19;;;7.59;100.00
13209;BME280;6669;42.678;23.332;2023-02-13T11:15:59;96259.78;;;7.87;98.34
13209;BME280;6669;42.678;23.332;2023-02-13T11:18:30;96267.97;;;7.69;94.33
13209;BME280;6669;42.678;23.332;2023-02-13T11:21:05;96260.44;;;7.31;94.97
13209;BME280;6669;42.678;23.332;2023-02-13T11:23:41;96257.22;;;7.98;95.15
13209;BME280;6669;42.678;23.332;2023-02-13T11:26:12;96248.44;;;8.46;91.70
13209;BME280;6669;42.678;23.332;2023-02-13T11:28:47;96243.09;;;8.82;89.19
13209;BME280;6669;42.678;23.332;2023-02-13T11:31:26;96234.81;;;8.88;85.79
13209;BME280;6669;42.678;23.332;2023-02-13T11:33:55;96241.22;;;8.61;85.71
13209;BME280;6669;42.678;23.332;2023-02-13T11:36:33;96224.75;;;8.51;85.62
13209;BME280;6669;42.678;23.332;2023-02-13T11:39:03;96223.19;;;8.26;86.39
13209;BME280;6669;42.678;23.332;2023-02-13T11:41:40;96210.72;;;8.31;84.91
13209;BME280;6669;42.678;23.332;2023-02-13T11:44:19;96222.72;;;8.09;87.78
13209;BME280;6669;42.678;23.332;2023-02-13T11:46:50;96209.31;;;8.15;88.28
13209;BME280;6669;42.678;23.332;2023-02-13T11:49:20;96199.19;;;8.35;88.69
13209;BME280;6669;42.678;23.332;2023-02-13T11:51:51;96195.53;;;9.04;85.84
13209;BME280;6669;42.678;23.332;2023-02-13T11:54:23;96184.38;;;8.92;79.02
13209;BME280;6669;42.678;23.332;2023-02-13T11:56:54;96175.94;;;8.45;79.15
13209;BME280;6669;42.678;23.332;2023-02-13T11:59:38;96182.44;;;8.73;78.31
13209;BME280;6669;42.678;23.332;2023-02-13T12:02:16;96171.97;;;9.28;75.23
13209;BME280;6669;42.678;23.332;2023-02-13T12:04:45;96170.31;;;9.48;72.34
13209;BME280;6669;42.678;23.332;2023-02-13T12:07:19;96161.25;;;9.85;70.15
13209;BME280;6669;42.678;23.332;2023-02-13T12:09:53;96162.69;;;10.09;68.52
13209;BME280;6669;42.678;23.332;2023-02-13T12:12:26;96153.47;;;9.64;68.26
13209;BME280;6669;42.678;23.332;2023-02-13T12:14:56;96155.41;;;9.93;68.96
13209;BME280;6669;42.678;23.332;2023-02-13T12:17:26;96145.72;;;10.36;68.42
13209;BME280;6669;42.678;23.332;2023-02-13T12:19:58;96148.78;;;10.70;66.50
13209;BME280;6669;42.678;23.332;2023-02-13T12:22:39;96147.28;;;10.58;65.45
13209;BME280;6669;42.678;23.332;2023-02-13T12:25:33;96148.16;;;10.98;64.69
13209;BME280;6669;42.678;23.332;2023-02-13T12:28:10;96151.69;;;10.87;63.35
13209;BME280;6669;42.678;23.332;2023-02-13T12:30:58;96142.78;;;11.28;63.87
13209;BME280;6669;42.678;23.332;2023-02-13T12:33:57;96133.81;;;11.60;62.29
13209;BME280;6669;42.678;23.332;2023-02-13T12:36:35;96145.78;;;11.43;61.33
13209;BME280;6669;42.678;23.332;2023-02-13T12:39:16;96141.03;;;11.29;60.24
13209;BME280;6669;42.678;23.332;2023-02-13T12:41:52;96127.06;;;10.91;61.12
13209;BME280;6669;42.678;23.332;2023-02-13T12:44:40;96138.53;;;11.27;61.18
13209;BME280;6669;42.678;23.332;2023-02-13T12:47:17;96120.47;;;10.48;59.54
13209;BME280;6669;42.678;23.332;2023-02-13T12:50:14;96124.19;;;10.74;60.87
13209;BME280;6669;42.678;23.332;2023-02-13T12:52:52;96118.56;;;10.89;59.78
13209;BME280;6669;42.678;23.332;2023-02-13T12:55:35;96115.69;;;11.21;59.42
13209;BME280;6669;42.678;23.332;2023-02-13T12:58:25;96113.75;;;10.84;59.14
13209;BME280;6669;42.678;23.332;2023-02-13T13:01:01;96107.34;;;10.78;58.26
13209;BME280;6669;42.678;23.332;2023-02-13T13:03:40;96113.00;;;10.33;59.34
13209;BME280;6669;42.678;23.332;2023-02-13T13:06:20;96116.22;;;10.15;59.81
13209;BME280;6669;42.678;23.332;2023-02-13T13:09:06;96110.88;;;10.48;59.99
13209;BME280;6669;42.678;23.332;2023-02-13T13:11:59;96088.41;;;10.47;59.86
13209;BME280;6669;42.678;23.332;2023-02-13T13:14:36;96100.50;;;10.97;58.93
13209;BME280;6669;42.678;23.332;2023-02-13T13:17:14;96084.03;;;9.97;59.26
13209;BME280;6669;42.678;23.332;2023-02-13T13:19:49;96088.31;;;10.88;60.46
13209;BME280;6669;42.678;23.332;2023-02-13T13:22:23;96092.94;;;11.13;59.08
13209;BME280;6669;42.678;23.332;2023-02-13T13:25:02;96075.81;;;11.21;58.53
13209;BME280;6669;42.678;23.332;2023-02-13T13:27:36;96082.50;;;11.33;58.31
13209;BME280;6669;42.678;23.332;2023-02-13T13:30:12;96093.91;;;10.93;58.52
13209;BME280;6669;42.678;23.332;2023-02-13T13:32:42;96081.56;;;10.36;59.59